sensor_id;sensor_type;location;lat;lon;timestamp;temperature;humidity
39095;DHT22;24840;47.508;19.376;2022-10-16T00:03:18;13.00;99.90
39095;DHT22;24840;47.508;19.376;2022-10-16T00:05:44;12.90;99.90
39095;DHT22;24840;47.508;19.376;2022-10-16T00:11:38;13.00;99.90
39095;DHT22;24840;47.508;19.376;2022-10-16T00:14:10;12.90;99.90
39095;DHT22;24840;47.508;19.376;2022-10-16T00:16:36;12.90;99.90
39095;DHT22;24840;47.508;19.376;2022-10-16T00:22:24;12.90;99.90
39095;DHT22;24840;47.508;19.376;2022-10-16T00:28:12;12.80;99.90
39095;DHT22;24840;47.508;19.376;2022-10-16T00:30:39;12.80;99.90
39095;DHT22;24840;47.508;19.376;2022-10-16T00:33:05;12.70;99.90
39095;DHT22;24840;47.508;19.376;2022-10-16T00:35:31;12.70;99.90
39095;DHT22;24840;47.508;19.376;2022-10-16T00:44:47;12.60;99.90
39095;DHT22;24840;47.508;19.376;2022-10-16T00:47:44;12.60;99.90
39095;DHT22;24840;47.508;19.376;2022-10-16T00:50:33;12.60;99.90
39095;DHT22;24840;47.508;19.376;2022-10-16T00:53:00;12.60;99.90
39095;DHT22;24840;47.508;19.376;2022-10-16T00:55:27;12.60;99.90
39095;DHT22;24840;47.508;19.376;2022-10-16T01:01:17;12.50;99.90
39095;DHT22;24840;47.508;19.376;2022-10-16T01:03:43;12.50;99.90
39095;DHT22;24840;47.508;19.376;2022-10-16T01:06:21;12.50;99.90
39095;DHT22;24840;47.508;19.376;2022-10-16T01:12:10;12.30;99.90
39095;DHT22;24840;47.508;19.376;2022-10-16T01:14:54;12.30;99.90
39095;DHT22;24840;47.508;19.376;2022-10-16T01:26:20;12.20;99.90
39095;DHT22;24840;47.508;19.376;2022-10-16T01:32:36;12.20;99.90
39095;DHT22;24840;47.508;19.376;2022-10-16T01:43:10;11.80;99.90
39095;DHT22;24840;47.508;19.376;2022-10-16T01:45:37;11.80;99.90
39095;DHT22;24840;47.508;19.376;2022-10-16T02:01:51;11.30;99.90
39095;DHT22;24840;47.508;19.376;2022-10-16T02:04:23;11.30;99.90
39095;DHT22;24840;47.508;19.376;2022-10-16T02:06:50;11.20;99.90
39095;DHT22;24840;47.508;19.376;2022-10-16T02:19:41;10.80;99.90
39095;DHT22;24840;47.508;19.376;2022-10-16T02:22:09;10.80;99.90
39095;DHT22;24840;47.508;19.376;2022-10-16T02:25:03;10.70;99.90
39095;DHT22;24840;47.508;19.376;2022-10-16T02:27:46;10.60;99.90
39095;DHT22;24840;47.508;19.376;2022-10-16T02:30:25;10.50;99.90
39095;DHT22;24840;47.508;19.376;2022-10-16T02:32:53;10.40;99.90
39095;DHT22;24840;47.508;19.376;2022-10-16T02:35:21;10.40;99.90
39095;DHT22;24840;47.508;19.376;2022-10-16T02:37:50;10.30;99.90
39095;DHT22;24840;47.508;19.376;2022-10-16T02:40:17;10.20;99.90
39095;DHT22;24840;47.508;19.376;2022-10-16T02:42:43;10.10;99.90
39095;DHT22;24840;47.508;19.376;2022-10-16T02:45:10;10.00;99.90
39095;DHT22;24840;47.508;19.376;2022-10-16T02:47:37;10.00;99.90
39095;DHT22;24840;47.508;19.376;2022-10-16T02:57:08;9.80;99.90
39095;DHT22;24840;47.508;19.376;2022-10-16T03:00:03;9.80;99.90
39095;DHT22;24840;47.508;19.376;2022-10-16T03:02:29;9.70;99.90
39095;DHT22;24840;47.508;19.376;2022-10-16T03:04:55;9.70;99.90
39095;DHT22;24840;47.508;19.376;2022-10-16T03:07:21;9.60;99.90
39095;DHT22;24840;47.508;19.376;2022-10-16T03:13:09;9.60;99.90
39095;DHT22;24840;47.508;19.376;2022-10-16T03:15:35;9.50;99.90
39095;DHT22;24840;47.508;19.376;2022-10-16T03:28:29;9.30;99.90
39095;DHT22;24840;47.508;19.376;2022-10-16T03:30:55;9.20;99.90
39095;DHT22;24840;47.508;19.376;2022-10-16T03:33:23;9.20;99.90
39095;DHT22;24840;47.508;19.376;2022-10-16T03:35:54;9.10;99.90
39095;DHT22;24840;47.508;19.376;2022-10-16T03:42:15;9.00;99.90
39095;DHT22;24840;47.508;19.376;2022-10-16T03:44:48;8.90;99.90
39095;DHT22;24840;47.508;19.376;2022-10-16T03:47:20;8.90;99.90
39095;DHT22;24840;47.508;19.376;2022-10-16T03:53:14;8.70;99.90
39095;DHT22;24840;47.508;19.376;2022-10-16T03:56:03;8.70;99.90
39095;DHT22;24840;47.508;19.376;2022-10-16T04:02:20;8.60;99.90
39095;DHT22;24840;47.508;19.376;2022-10-16T04:04:46;8.50;99.90
39095;DHT22;24840;47.508;19.376;2022-10-16T04:07:12;8.50;99.90
39095;DHT22;24840;47.508;19.376;2022-10-16T04:13:02;8.40;99.90
39095;DHT22;24840;47.508;19.376;2022-10-16T04:15:32;8.30;99.90
39095;DHT22;24840;47.508;19.376;2022-10-16T04:21:30;8.20;99.90
39095;DHT22;24840;47.508;19.376;2022-10-16T04:24:00;8.30;99.90
39095;DHT22;24840;47.508;19.376;2022-10-16T04:26:31;8.30;99.90
39095;DHT22;24840;47.508;19.376;2022-10-16T04:32:24;8.10;99.90
39095;DHT22;24840;47.508;19.376;2022-10-16T04:34:51;8.20;99.90
39095;DHT22;24840;47.508;19.376;2022-10-16T04:37:18;8.10;99.90
39095;DHT22;24840;47.508;19.376;2022-10-16T04:40:07;8.10;99.90
39095;DHT22;24840;47.508;19.376;2022-10-16T04:42:33;8.20;99.90
39095;DHT22;24840;47.508;19.376;2022-10-16T04:44:59;8.10;99.90
39095;DHT22;24840;47.508;19.376;2022-10-16T04:47:25;8.00;99.90
39095;DHT22;24840;47.508;19.376;2022-10-16T04:53:13;7.90;99.90
39095;DHT22;24840;47.508;19.376;2022-10-16T04:55:40;7.80;99.90
39095;DHT22;24840;47.508;19.376;2022-10-16T04:58:08;7.80;99.90
39095;DHT22;24840;47.508;19.376;2022-10-16T05:00:35;7.90;99.90
39095;DHT22;24840;47.508;19.376;2022-10-16T05:03:01;7.80;99.90
39095;DHT22;24840;47.508;19.376;2022-10-16T05:05:31;7.70;99.90
39095;DHT22;24840;47.508;19.376;2022-10-16T05:08:09;7.60;99.90
39095;DHT22;24840;47.508;19.376;2022-10-16T05:10:36;7.50;99.90
39095;DHT22;24840;47.508;19.376;2022-10-16T05:13:02;7.60;99.90
39095;DHT22;24840;47.508;19.376;2022-10-16T05:15:29;7.60;99.90
39095;DHT22;24840;47.508;19.376;2022-10-16T05:18:04;7.60;99.90
39095;DHT22;24840;47.508;19.376;2022-10-16T05:20:31;7.60;99.90
39095;DHT22;24840;47.508;19.376;2022-10-16T05:22:57;7.60;99.90
39095;DHT22;24840;47.508;19.376;2022-10-16T05:25:24;7.60;99.90
39095;DHT22;24840;47.508;19.376;2022-10-16T05:27:51;7.60;99.90
39095;DHT22;24840;47.508;19.376;2022-10-16T05:30:18;7.70;99.90
39095;DHT22;24840;47.508;19.376;2022-10-16T05:32:55;7.70;99.90
39095;DHT22;24840;47.508;19.376;2022-10-16T05:35:22;7.60;99.90
39095;DHT22;24840;47.508;19.376;2022-10-16T05:41:11;7.60;99.90
39095;DHT22;24840;47.508;19.376;2022-10-16T05:43:38;7.60;99.90
39095;DHT22;24840;47.508;19.376;2022-10-16T05:46:06;7.70;99.90
39095;DHT22;24840;47.508;19.376;2022-10-16T05:51:54;7.60;99.90
39095;DHT22;24840;47.508;19.376;2022-10-16T05:54:21;7.70;99.90
39095;DHT22;24840;47.508;19.376;2022-10-16T05:56:47;7.60;99.90
39095;DHT22;24840;47.508;19.376;2022-10-16T05:59:24;7.60;99.90
39095;DHT22;24840;47.508;19.376;2022-10-16T06:01:50;7.70;99.90
39095;DHT22;24840;47.508;19.376;2022-10-16T06:04:16;7.70;99.90
39095;DHT22;24840;47.508;19.376;2022-10-16T06:06:42;7.70;99.90
39095;DHT22;24840;47.508;19.376;2022-10-16T06:12:30;7.90;99.90
39095;DHT22;24840;47.508;19.376;2022-10-16T06:14:56;7.90;99.90
39095;DHT22;24840;47.508;19.376;2022-10-16T06:17:22;8.00;99.90
39095;DHT22;24840;47.508;19.376;2022-10-16T06:23:24;8.00;99.90
39095;DHT22;24840;47.508;19.376;2022-10-16T06:25:50;8.20;99.90
39095;DHT22;24840;47.508;19.376;2022-10-16T06:32:02;8.40;99.90
39095;DHT22;24840;47.508;19.376;2022-10-16T06:34:28;8.60;99.90
39095;DHT22;24840;47.508;19.376;2022-10-16T06:36:54;8.50;99.90
39095;DHT22;24840;47.508;19.376;2022-10-16T06:42:49;8.80;99.90
39095;DHT22;24840;47.508;19.376;2022-10-16T06:45:16;9.00;99.90
39095;DHT22;24840;47.508;19.376;2022-10-16T06:47:42;9.10;99.90
39095;DHT22;24840;47.508;19.376;2022-10-16T06:50:08;9.20;99.90
39095;DHT22;24840;47.508;19.376;2022-10-16T06:52:34;9.40;99.90
39095;DHT22;24840;47.508;19.376;2022-10-16T06:55:00;9.60;99.90
39095;DHT22;24840;47.508;19.376;2022-10-16T06:57:26;10.00;99.90
39095;DHT22;24840;47.508;19.376;2022-10-16T07:00:02;10.40;99.90
39095;DHT22;24840;47.508;19.376;2022-10-16T07:02:28;11.20;99.90
39095;DHT22;24840;47.508;19.376;2022-10-16T07:04:54;11.60;99.90
39095;DHT22;24840;47.508;19.376;2022-10-16T07:07:22;12.10;99.90
39095;DHT22;24840;47.508;19.376;2022-10-16T07:13:11;12.60;99.90
39095;DHT22;24840;47.508;19.376;2022-10-16T07:15:41;13.30;99.90
39095;DHT22;24840;47.508;19.376;2022-10-16T07:18:10;13.50;99.90
39095;DHT22;24840;47.508;19.376;2022-10-16T07:20:35;13.70;99.90
39095;DHT22;24840;47.508;19.376;2022-10-16T07:23:03;14.30;99.90
39095;DHT22;24840;47.508;19.376;2022-10-16T07:25:29;14.50;99.90
39095;DHT22;24840;47.508;19.376;2022-10-16T07:27:59;14.60;99.90
39095;DHT22;24840;47.508;19.376;2022-10-16T07:30:28;14.90;99.90
39095;DHT22;24840;47.508;19.376;2022-10-16T07:32:55;15.10;99.90
39095;DHT22;24840;47.508;19.376;2022-10-16T07:35:23;15.00;99.90
39095;DHT22;24840;47.508;19.376;2022-10-16T07:37:51;15.00;99.90
39095;DHT22;24840;47.508;19.376;2022-10-16T07:40:22;15.00;99.90
39095;DHT22;24840;47.508;19.376;2022-10-16T07:43:00;15.30;99.90
39095;DHT22;24840;47.508;19.376;2022-10-16T07:45:31;15.80;99.90
39095;DHT22;24840;47.508;19.376;2022-10-16T07:48:29;15.80;99.90
39095;DHT22;24840;47.508;19.376;2022-10-16T07:53:49;15.80;99.90
39095;DHT22;24840;47.508;19.376;2022-10-16T07:56:21;16.30;99.90
39095;DHT22;24840;47.508;19.376;2022-10-16T07:59:09;17.10;99.70
39095;DHT22;24840;47.508;19.376;2022-10-16T08:01:36;17.50;98.80
39095;DHT22;24840;47.508;19.376;2022-10-16T08:04:14;17.60;97.40
39095;DHT22;24840;47.508;19.376;2022-10-16T08:06:54;17.70;96.50
39095;DHT22;24840;47.508;19.376;2022-10-16T08:09:22;17.70;95.00
39095;DHT22;24840;47.508;19.376;2022-10-16T08:11:53;17.90;95.50
39095;DHT22;24840;47.508;19.376;2022-10-16T08:14:20;18.70;95.40
39095;DHT22;24840;47.508;19.376;2022-10-16T08:16:47;19.20;93.70
39095;DHT22;24840;47.508;19.376;2022-10-16T08:19:15;18.90;93.90
39095;DHT22;24840;47.508;19.376;2022-10-16T08:21:56;19.00;94.00
39095;DHT22;24840;47.508;19.376;2022-10-16T08:24:39;19.40;93.10
39095;DHT22;24840;47.508;19.376;2022-10-16T08:27:15;19.20;91.50
39095;DHT22;24840;47.508;19.376;2022-10-16T08:29:56;18.80;90.50
39095;DHT22;24840;47.508;19.376;2022-10-16T08:32:23;19.20;92.60
39095;DHT22;24840;47.508;19.376;2022-10-16T08:34:55;19.20;91.00
39095;DHT22;24840;47.508;19.376;2022-10-16T08:37:22;19.80;90.90
39095;DHT22;24840;47.508;19.376;2022-10-16T08:39:48;19.90;90.10
39095;DHT22;24840;47.508;19.376;2022-10-16T08:42:35;20.40;91.60
39095;DHT22;24840;47.508;19.376;2022-10-16T08:45:25;20.50;89.10
39095;DHT22;24840;47.508;19.376;2022-10-16T08:51:24;20.50;90.20
39095;DHT22;24840;47.508;19.376;2022-10-16T08:54:01;20.60;87.20
39095;DHT22;24840;47.508;19.376;2022-10-16T08:56:33;20.80;87.30
39095;DHT22;24840;47.508;19.376;2022-10-16T09:02:49;21.40;82.40
39095;DHT22;24840;47.508;19.376;2022-10-16T09:08:48;20.60;83.90
39095;DHT22;24840;47.508;19.376;2022-10-16T09:17:00;21.60;84.80
39095;DHT22;24840;47.508;19.376;2022-10-16T09:23:10;22.90;81.30
39095;DHT22;24840;47.508;19.376;2022-10-16T09:25:45;22.50;79.80
39095;DHT22;24840;47.508;19.376;2022-10-16T09:38:07;21.90;79.40
39095;DHT22;24840;47.508;19.376;2022-10-16T09:40:38;22.90;78.20
39095;DHT22;24840;47.508;19.376;2022-10-16T09:43:21;23.50;77.50
39095;DHT22;24840;47.508;19.376;2022-10-16T09:46:03;23.40;77.00
39095;DHT22;24840;47.508;19.376;2022-10-16T09:52:15;22.50;78.70
39095;DHT22;24840;47.508;19.376;2022-10-16T09:55:12;23.40;73.10
39095;DHT22;24840;47.508;19.376;2022-10-16T09:57:58;23.90;77.70
39095;DHT22;24840;47.508;19.376;2022-10-16T10:00:24;24.70;73.50
39095;DHT22;24840;47.508;19.376;2022-10-16T10:02:52;24.90;69.30
39095;DHT22;24840;47.508;19.376;2022-10-16T10:05:27;24.40;72.00
39095;DHT22;24840;47.508;19.376;2022-10-16T10:11:43;24.40;74.20
39095;DHT22;24840;47.508;19.376;2022-10-16T10:14:32;25.50;70.40
39095;DHT22;24840;47.508;19.376;2022-10-16T10:17:11;25.50;66.40
39095;DHT22;24840;47.508;19.376;2022-10-16T10:22:59;25.40;67.20
39095;DHT22;24840;47.508;19.376;2022-10-16T10:25:48;25.50;70.30
39095;DHT22;24840;47.508;19.376;2022-10-16T10:32:21;25.70;68.50
39095;DHT22;24840;47.508;19.376;2022-10-16T10:35:14;25.00;65.00
39095;DHT22;24840;47.508;19.376;2022-10-16T10:47:51;24.30;65.20
39095;DHT22;24840;47.508;19.376;2022-10-16T10:56:23;25.60;63.20
39095;DHT22;24840;47.508;19.376;2022-10-16T11:05:28;25.70;61.90
39095;DHT22;24840;47.508;19.376;2022-10-16T11:11:35;25.60;62.40
39095;DHT22;24840;47.508;19.376;2022-10-16T11:17:32;24.80;60.90
39095;DHT22;24840;47.508;19.376;2022-10-16T11:25:49;25.60;63.40
39095;DHT22;24840;47.508;19.376;2022-10-16T11:35:22;25.80;60.00
39095;DHT22;24840;47.508;19.376;2022-10-16T11:37:51;26.10;62.60
39095;DHT22;24840;47.508;19.376;2022-10-16T11:40:31;26.80;58.80
39095;DHT22;24840;47.508;19.376;2022-10-16T11:43:15;26.20;57.70
39095;DHT22;24840;47.508;19.376;2022-10-16T11:57:49;25.70;61.60
39095;DHT22;24840;47.508;19.376;2022-10-16T12:00:44;27.00;60.20
39095;DHT22;24840;47.508;19.376;2022-10-16T12:03:33;27.30;58.60
39095;DHT22;24840;47.508;19.376;2022-10-16T12:12:43;26.30;59.00
39095;DHT22;24840;47.508;19.376;2022-10-16T12:15:32;26.40;59.00
39095;DHT22;24840;47.508;19.376;2022-10-16T12:21:30;25.20;57.40
39095;DHT22;24840;47.508;19.376;2022-10-16T12:23:58;25.90;63.10
39095;DHT22;24840;47.508;19.376;2022-10-16T12:26:29;25.40;59.40
39095;DHT22;24840;47.508;19.376;2022-10-16T12:32:32;25.70;59.80
39095;DHT22;24840;47.508;19.376;2022-10-16T12:34:59;27.00;58.70
39095;DHT22;24840;47.508;19.376;2022-10-16T12:37:44;25.90;56.80
39095;DHT22;24840;47.508;19.376;2022-10-16T12:40:36;27.00;59.60
39095;DHT22;24840;47.508;19.376;2022-10-16T12:43:57;27.30;58.80
39095;DHT22;24840;47.508;19.376;2022-10-16T12:54:59;26.00;55.20
39095;DHT22;24840;47.508;19.376;2022-10-16T13:06:57;26.50;55.40
39095;DHT22;24840;47.508;19.376;2022-10-16T13:16:18;27.00;54.80
39095;DHT22;24840;47.508;19.376;2022-10-16T13:22:34;26.40;56.70
39095;DHT22;24840;47.508;19.376;2022-10-16T13:25:28;26.80;58.50
39095;DHT22;24840;47.508;19.376;2022-10-16T13:31:21;26.90;55.70
39095;DHT22;24840;47.508;19.376;2022-10-16T13:37:25;26.40;55.10
39095;DHT22;24840;47.508;19.376;2022-10-16T13:43:23;26.10;55.30
39095;DHT22;24840;47.508;19.376;2022-10-16T13:46:13;26.40;55.70
39095;DHT22;24840;47.508;19.376;2022-10-16T13:55:23;25.60;56.30
39095;DHT22;24840;47.508;19.376;2022-10-16T14:01:23;25.30;58.60
39095;DHT22;24840;47.508;19.376;2022-10-16T14:03:52;25.40;60.50
39095;DHT22;24840;47.508;19.376;2022-10-16T14:06:21;25.50;57.80
39095;DHT22;24840;47.508;19.376;2022-10-16T14:12:17;24.80;57.40
39095;DHT22;24840;47.508;19.376;2022-10-16T14:14:45;24.20;59.40
39095;DHT22;24840;47.508;19.376;2022-10-16T14:17:19;24.70;61.70
39095;DHT22;24840;47.508;19.376;2022-10-16T14:23:23;24.70;61.80
39095;DHT22;24840;47.508;19.376;2022-10-16T14:26:04;24.40;58.40
39095;DHT22;24840;47.508;19.376;2022-10-16T14:32:22;24.30;66.10
39095;DHT22;24840;47.508;19.376;2022-10-16T14:34:54;23.50;61.60
39095;DHT22;24840;47.508;19.376;2022-10-16T14:37:26;23.50;61.10
39095;DHT22;24840;47.508;19.376;2022-10-16T14:43:31;23.30;68.10
39095;DHT22;24840;47.508;19.376;2022-10-16T14:45:59;23.10;70.20
39095;DHT22;24840;47.508;19.376;2022-10-16T14:52:15;22.70;67.00
39095;DHT22;24840;47.508;19.376;2022-10-16T14:54:41;22.80;67.10
39095;DHT22;24840;47.508;19.376;2022-10-16T14:57:17;22.70;67.20
39095;DHT22;24840;47.508;19.376;2022-10-16T15:03:26;22.20;73.40
39095;DHT22;24840;47.508;19.376;2022-10-16T15:05:52;21.90;75.60
39095;DHT22;24840;47.508;19.376;2022-10-16T15:12:21;21.60;76.20
39095;DHT22;24840;47.508;19.376;2022-10-16T15:14:47;21.10;79.70
39095;DHT22;24840;47.508;19.376;2022-10-16T15:17:13;21.00;80.40
39095;DHT22;24840;47.508;19.376;2022-10-16T15:23:15;20.40;83.00
39095;DHT22;24840;47.508;19.376;2022-10-16T15:25:53;20.10;84.50
39095;DHT22;24840;47.508;19.376;2022-10-16T15:28:39;19.80;85.60
39095;DHT22;24840;47.508;19.376;2022-10-16T15:31:05;19.40;87.30
39095;DHT22;24840;47.508;19.376;2022-10-16T15:33:31;19.10;88.40
39095;DHT22;24840;47.508;19.376;2022-10-16T15:36:01;18.80;90.10
39095;DHT22;24840;47.508;19.376;2022-10-16T15:42:17;18.10;91.90
39095;DHT22;24840;47.508;19.376;2022-10-16T15:44:57;17.70;93.10
39095;DHT22;24840;47.508;19.376;2022-10-16T15:47:23;17.60;93.70
39095;DHT22;24840;47.508;19.376;2022-10-16T15:52:45;17.20;95.20
39095;DHT22;24840;47.508;19.376;2022-10-16T15:55:12;17.00;95.60
39095;DHT22;24840;47.508;19.376;2022-10-16T15:57:39;16.90;95.80
39095;DHT22;24840;47.508;19.376;2022-10-16T16:00:15;16.70;96.60
39095;DHT22;24840;47.508;19.376;2022-10-16T16:02:42;16.50;97.30
39095;DHT22;24840;47.508;19.376;2022-10-16T16:05:10;16.40;97.60
39095;DHT22;24840;47.508;19.376;2022-10-16T16:07:38;16.30;97.10
39095;DHT22;24840;47.508;19.376;2022-10-16T16:10:07;16.20;97.30
39095;DHT22;24840;47.508;19.376;2022-10-16T16:12:38;16.00;97.50
39095;DHT22;24840;47.508;19.376;2022-10-16T16:15:06;16.00;97.80
39095;DHT22;24840;47.508;19.376;2022-10-16T16:17:33;15.80;98.50
39095;DHT22;24840;47.508;19.376;2022-10-16T16:20:00;15.60;99.40
39095;DHT22;24840;47.508;19.376;2022-10-16T16:22:26;15.40;99.60
39095;DHT22;24840;47.508;19.376;2022-10-16T16:24:52;15.40;99.60
39095;DHT22;24840;47.508;19.376;2022-10-16T16:27:18;15.20;99.90
39095;DHT22;24840;47.508;19.376;2022-10-16T16:29:46;15.20;99.90
39095;DHT22;24840;47.508;19.376;2022-10-16T16:32:14;15.00;99.90
39095;DHT22;24840;47.508;19.376;2022-10-16T16:34:41;14.90;99.90
39095;DHT22;24840;47.508;19.376;2022-10-16T16:37:08;14.80;99.90
39095;DHT22;24840;47.508;19.376;2022-10-16T16:39:34;14.60;99.90
39095;DHT22;24840;47.508;19.376;2022-10-16T16:42:01;14.60;99.90
39095;DHT22;24840;47.508;19.376;2022-10-16T16:44:29;14.40;99.90
39095;DHT22;24840;47.508;19.376;2022-10-16T16:46:55;14.30;99.90
39095;DHT22;24840;47.508;19.376;2022-10-16T16:49:21;14.00;99.90
39095;DHT22;24840;47.508;19.376;2022-10-16T16:51:47;14.00;99.90
39095;DHT22;24840;47.508;19.376;2022-10-16T16:54:14;14.00;99.90
39095;DHT22;24840;47.508;19.376;2022-10-16T16:56:41;13.90;99.90
39095;DHT22;24840;47.508;19.376;2022-10-16T16:59:16;13.70;99.90
39095;DHT22;24840;47.508;19.376;2022-10-16T17:01:43;13.70;99.90
39095;DHT22;24840;47.508;19.376;2022-10-16T17:04:10;13.60;99.90
39095;DHT22;24840;47.508;19.376;2022-10-16T17:06:36;13.40;99.90
39095;DHT22;24840;47.508;19.376;2022-10-16T17:09:04;13.40;99.90
39095;DHT22;24840;47.508;19.376;2022-10-16T17:11:31;13.20;99.90
39095;DHT22;24840;47.508;19.376;2022-10-16T17:13:59;13.20;99.90
39095;DHT22;24840;47.508;19.376;2022-10-16T17:16:29;13.20;99.90
39095;DHT22;24840;47.508;19.376;2022-10-16T17:18:55;13.10;99.90
39095;DHT22;24840;47.508;19.376;2022-10-16T17:21:21;13.00;99.90
39095;DHT22;24840;47.508;19.376;2022-10-16T17:23:51;12.90;99.90
39095;DHT22;24840;47.508;19.376;2022-10-16T17:26:18;12.90;99.90
39095;DHT22;24840;47.508;19.376;2022-10-16T17:28:44;12.80;99.90
39095;DHT22;24840;47.508;19.376;2022-10-16T17:31:16;12.60;99.90
39095;DHT22;24840;47.508;19.376;2022-10-16T17:33:43;12.60;99.90
39095;DHT22;24840;47.508;19.376;2022-10-16T17:36:10;12.50;99.90
39095;DHT22;24840;47.508;19.376;2022-10-16T17:38:37;12.50;99.90
39095;DHT22;24840;47.508;19.376;2022-10-16T17:41:22;12.40;99.90
39095;DHT22;24840;47.508;19.376;2022-10-16T17:43:50;12.30;99.90
39095;DHT22;24840;47.508;19.376;2022-10-16T17:46:17;12.30;99.90
39095;DHT22;24840;47.508;19.376;2022-10-16T17:48:49;12.20;99.90
39095;DHT22;24840;47.508;19.376;2022-10-16T17:51:17;12.30;99.90
39095;DHT22;24840;47.508;19.376;2022-10-16T17:53:51;12.10;99.90
39095;DHT22;24840;47.508;19.376;2022-10-16T17:56:18;12.10;99.90
39095;DHT22;24840;47.508;19.376;2022-10-16T17:58:52;12.10;99.90
39095;DHT22;24840;47.508;19.376;2022-10-16T18:01:33;12.00;99.90
39095;DHT22;24840;47.508;19.376;2022-10-16T18:04:10;11.80;99.90
39095;DHT22;24840;47.508;19.376;2022-10-16T18:06:46;11.90;99.90
39095;DHT22;24840;47.508;19.376;2022-10-16T18:09:15;11.80;99.90
39095;DHT22;24840;47.508;19.376;2022-10-16T18:11:46;11.70;99.90
39095;DHT22;24840;47.508;19.376;2022-10-16T18:14:15;11.60;99.90
39095;DHT22;24840;47.508;19.376;2022-10-16T18:16:42;11.60;99.90
39095;DHT22;24840;47.508;19.376;2022-10-16T18:19:10;11.50;99.90
39095;DHT22;24840;47.508;19.376;2022-10-16T18:21:36;11.50;99.90
39095;DHT22;24840;47.508;19.376;2022-10-16T18:24:02;11.40;99.90
39095;DHT22;24840;47.508;19.376;2022-10-16T18:26:28;11.40;99.90
39095;DHT22;24840;47.508;19.376;2022-10-16T18:28:55;11.40;99.90
39095;DHT22;24840;47.508;19.376;2022-10-16T18:31:22;11.30;99.90
39095;DHT22;24840;47.508;19.376;2022-10-16T18:33:51;11.40;99.90
39095;DHT22;24840;47.508;19.376;2022-10-16T18:36:22;11.20;99.90
39095;DHT22;24840;47.508;19.376;2022-10-16T18:38:49;11.20;99.90
39095;DHT22;24840;47.508;19.376;2022-10-16T18:41:16;11.10;99.90
39095;DHT22;24840;47.508;19.376;2022-10-16T18:43:42;11.00;99.90
39095;DHT22;24840;47.508;19.376;2022-10-16T18:46:15;11.00;99.90
39095;DHT22;24840;47.508;19.376;2022-10-16T18:48:42;11.10;99.90
39095;DHT22;24840;47.508;19.376;2022-10-16T18:51:21;11.20;99.90
39095;DHT22;24840;47.508;19.376;2022-10-16T18:53:51;11.20;99.90
39095;DHT22;24840;47.508;19.376;2022-10-16T18:56:20;10.90;99.90
39095;DHT22;24840;47.508;19.376;2022-10-16T18:58:47;10.80;99.90
39095;DHT22;24840;47.508;19.376;2022-10-16T19:01:15;10.70;99.90
39095;DHT22;24840;47.508;19.376;2022-10-16T19:03:42;10.70;99.90
39095;DHT22;24840;47.508;19.376;2022-10-16T19:06:10;10.70;99.90
39095;DHT22;24840;47.508;19.376;2022-10-16T19:08:37;10.70;99.90
39095;DHT22;24840;47.508;19.376;2022-10-16T19:11:11;10.70;99.90
39095;DHT22;24840;47.508;19.376;2022-10-16T19:13:38;10.80;99.90
39095;DHT22;24840;47.508;19.376;2022-10-16T19:16:10;10.60;99.90
39095;DHT22;24840;47.508;19.376;2022-10-16T19:18:37;10.50;99.90
39095;DHT22;24840;47.508;19.376;2022-10-16T19:21:05;10.50;99.90
39095;DHT22;24840;47.508;19.376;2022-10-16T19:23:32;10.40;99.90
39095;DHT22;24840;47.508;19.376;2022-10-16T19:26:07;10.50;99.90
39095;DHT22;24840;47.508;19.376;2022-10-16T19:28:34;10.30;99.90
39095;DHT22;24840;47.508;19.376;2022-10-16T19:31:02;10.30;99.90
39095;DHT22;24840;47.508;19.376;2022-10-16T19:33:29;10.20;99.90
39095;DHT22;24840;47.508;19.376;2022-10-16T19:38:32;10.30;99.90
39095;DHT22;24840;47.508;19.376;2022-10-16T19:41:12;10.20;99.90
39095;DHT22;24840;47.508;19.376;2022-10-16T19:43:42;10.20;99.90
39095;DHT22;24840;47.508;19.376;2022-10-16T19:46:14;10.20;99.90
39095;DHT22;24840;47.508;19.376;2022-10-16T19:48:40;10.30;99.90
39095;DHT22;24840;47.508;19.376;2022-10-16T19:51:10;10.20;99.90
39095;DHT22;24840;47.508;19.376;2022-10-16T19:53:36;10.10;99.90
39095;DHT22;24840;47.508;19.376;2022-10-16T19:56:17;10.00;99.90
39095;DHT22;24840;47.508;19.376;2022-10-16T19:58:44;10.10;99.90
39095;DHT22;24840;47.508;19.376;2022-10-16T20:01:13;10.00;99.90
39095;DHT22;24840;47.508;19.376;2022-10-16T20:03:41;9.90;99.90
39095;DHT22;24840;47.508;19.376;2022-10-16T20:06:08;9.90;99.90
39095;DHT22;24840;47.508;19.376;2022-10-16T20:08:36;9.90;99.90
39095;DHT22;24840;47.508;19.376;2022-10-16T20:11:04;9.80;99.90
39095;DHT22;24840;47.508;19.376;2022-10-16T20:13:31;9.80;99.90
39095;DHT22;24840;47.508;19.376;2022-10-16T20:15:58;9.90;99.90
39095;DHT22;24840;47.508;19.376;2022-10-16T20:18:24;9.90;99.90
39095;DHT22;24840;47.508;19.376;2022-10-16T20:20:50;9.70;99.90
39095;DHT22;24840;47.508;19.376;2022-10-16T20:23:18;9.60;99.90
39095;DHT22;24840;47.508;19.376;2022-10-16T20:25:45;9.50;99.90
39095;DHT22;24840;47.508;19.376;2022-10-16T20:28:14;9.60;99.90
39095;DHT22;24840;47.508;19.376;2022-10-16T20:30:43;9.50;99.90
39095;DHT22;24840;47.508;19.376;2022-10-16T20:33:10;9.50;99.90
39095;DHT22;24840;47.508;19.376;2022-10-16T20:35:39;9.50;99.90
39095;DHT22;24840;47.508;19.376;2022-10-16T20:38:07;9.60;99.90
39095;DHT22;24840;47.508;19.376;2022-10-16T20:40:35;9.60;99.90
39095;DHT22;24840;47.508;19.376;2022-10-16T20:43:02;9.40;99.90
39095;DHT22;24840;47.508;19.376;2022-10-16T20:45:29;9.30;99.90
39095;DHT22;24840;47.508;19.376;2022-10-16T20:47:57;9.20;99.90
39095;DHT22;24840;47.508;19.376;2022-10-16T20:50:27;9.30;99.90
39095;DHT22;24840;47.508;19.376;2022-10-16T20:52:55;9.30;99.90
39095;DHT22;24840;47.508;19.376;2022-10-16T20:55:23;9.30;99.90
39095;DHT22;24840;47.508;19.376;2022-10-16T20:57:49;9.20;99.90
39095;DHT22;24840;47.508;19.376;2022-10-16T21:00:16;9.30;99.90
39095;DHT22;24840;47.508;19.376;2022-10-16T21:02:43;9.20;99.90
39095;DHT22;24840;47.508;19.376;2022-10-16T21:05:16;9.20;99.90
39095;DHT22;24840;47.508;19.376;2022-10-16T21:07:48;9.30;99.90
39095;DHT22;24840;47.508;19.376;2022-10-16T21:10:16;9.30;99.90
39095;DHT22;24840;47.508;19.376;2022-10-16T21:12:43;9.10;99.90
39095;DHT22;24840;47.508;19.376;2022-10-16T21:15:10;9.20;99.90
39095;DHT22;24840;47.508;19.376;2022-10-16T21:17:38;9.30;99.90
39095;DHT22;24840;47.508;19.376;2022-10-16T21:20:04;9.20;99.90
39095;DHT22;24840;47.508;19.376;2022-10-16T21:22:30;9.10;99.90
39095;DHT22;24840;47.508;19.376;2022-10-16T21:24:56;9.10;99.90